地図

経路データ

SID SEASON NUMBER BASIN SUBBASIN NAME ISO_TIME NATURE LAT LON WMO_WIND WMO_PRES WMO_AGENCY TRACK_TYPE DIST2LAND LANDFALL IFLAG USA_AGENCY USA_ATCF_ID USA_LAT USA_LON USA_RECORD USA_STATUS USA_WIND USA_PRES USA_SSHS USA_R34_NE USA_R34_SE USA_R34_SW USA_R34_NW USA_R50_NE USA_R50_SE USA_R50_SW USA_R50_NW USA_R64_NE USA_R64_SE USA_R64_SW USA_R64_NW USA_POCI USA_ROCI USA_RMW USA_EYE TOKYO_LAT TOKYO_LON TOKYO_GRADE TOKYO_WIND TOKYO_PRES TOKYO_R50_DIR TOKYO_R50_LONG TOKYO_R50_SHORT TOKYO_R30_DIR TOKYO_R30_LONG TOKYO_R30_SHORT TOKYO_LAND CMA_LAT CMA_LON CMA_CAT CMA_WIND CMA_PRES HKO_LAT HKO_LON HKO_CAT HKO_WIND HKO_PRES NEWDELHI_LAT NEWDELHI_LON NEWDELHI_GRADE NEWDELHI_WIND NEWDELHI_PRES NEWDELHI_CI NEWDELHI_DP NEWDELHI_POCI REUNION_LAT REUNION_LON REUNION_TYPE REUNION_WIND REUNION_PRES REUNION_TNUM REUNION_CI REUNION_RMW REUNION_R34_NE REUNION_R34_SE REUNION_R34_SW REUNION_R34_NW REUNION_R50_NE REUNION_R50_SE REUNION_R50_SW REUNION_R50_NW REUNION_R64_NE REUNION_R64_SE REUNION_R64_SW REUNION_R64_NW BOM_LAT BOM_LON BOM_TYPE BOM_WIND BOM_PRES BOM_TNUM BOM_CI BOM_RMW BOM_R34_NE BOM_R34_SE BOM_R34_SW BOM_R34_NW BOM_R50_NE BOM_R50_SE BOM_R50_SW BOM_R50_NW BOM_R64_NE BOM_R64_SE BOM_R64_SW BOM_R64_NW BOM_ROCI BOM_POCI BOM_EYE BOM_POS_METHOD BOM_PRES_METHOD NADI_LAT NADI_LON NADI_CAT NADI_WIND NADI_PRES WELLINGTON_LAT WELLINGTON_LON WELLINGTON_WIND WELLINGTON_PRES DS824_LAT DS824_LON DS824_STAGE DS824_WIND DS824_PRES TD9636_LAT TD9636_LON TD9636_STAGE TD9636_WIND TD9636_PRES TD9635_LAT TD9635_LON TD9635_WIND TD9635_PRES TD9635_ROCI NEUMANN_LAT NEUMANN_LON NEUMANN_CLASS NEUMANN_WIND NEUMANN_PRES MLC_LAT MLC_LON MLC_CLASS MLC_WIND MLC_PRES USA_GUST BOM_GUST BOM_GUST_PER REUNION_GUST REUNION_GUST_PER USA_SEAHGT USA_SEARAD_NE USA_SEARAD_SE USA_SEARAD_SW USA_SEARAD_NW STORM_SPEED STORM_DIR
1964291N16091 1964 99 NI BB NOT_NAMED 1964-10-16 18:00:00 TS 16.0000 90.8000 main 363 363 O________O____ jtwc_io IO121964 16.0000 90.8000 -1 16.0000 90.8000 TC 3 264
1964291N16091 1964 99 NI BB NOT_NAMED 1964-10-16 21:00:00 TS 15.9851 90.6476 main 384 384 P________P____ IO121964 15.9851 90.6476 -1 15.9851 90.6476 TC 4 270
1964291N16091 1964 99 NI BB NOT_NAMED 1964-10-17 00:00:00 TS 16.0000 90.4000 main 406 406 O________O____ jtwc_io IO121964 16.0000 90.4000 -1 16.0000 90.4000 TC 25 7 278
1964291N16091 1964 99 NI BB NOT_NAMED 1964-10-17 03:00:00 TS 16.0729 89.9731 main 449 449 P________PO___ IO121964 16.0695 89.9697 -1 16.0695 89.9697 TC 25 16.1000 90.0000 1 11 281
1964291N16091 1964 99 NI BB NOT_NAMED 1964-10-17 06:00:00 TS 16.2103 89.2515 main 524 450 O________OP___ jtwc_io IO121964 16.2000 89.3000 -1 16.2000 89.3000 TC 25 16.2514 89.0577 1 17 281
1964291N16091 1964 99 NI BB NOT_NAMED 1964-10-17 09:00:00 TS 16.3874 88.2434 main 445 385 P________PP___ IO121964 16.3789 88.2704 -1 16.3789 88.2704 TC 25 16.4102 88.1715 1 19 282
1964291N16091 1964 99 NI BB NOT_NAMED 1964-10-17 12:00:00 TS 16.5962 87.3332 main 377 323 O________OP___ jtwc_io IO121964 16.6000 87.3000 -1 16.6000 87.3000 TC 25 16.5887 87.3996 1 14 288
1964291N16091 1964 99 NI BB NOT_NAMED 1964-10-17 15:00:00 TS 16.8228 86.8248 main 323 276 P________PO___ IO121964 16.8342 86.8372 -1 16.8342 86.8372 TC 25 16.8000 86.8000 1 9 303
1964291N16091 1964 99 NI BB NOT_NAMED 1964-10-17 18:00:00 TS 17.0847 86.5363 main 276 238 O________OP___ jtwc_io IO121964 17.1000 86.6000 -1 17.1000 86.6000 TC 25 17.0540 86.4089 1 8 317
1964291N16091 1964 99 NI BB NOT_NAMED 1964-10-17 21:00:00 TS 17.3767 86.2771 main 238 200 P________PP___ IO121964 17.3924 86.3274 -1 17.3924 86.3274 TC 25 17.3452 86.1764 1 7 324
1964291N16091 1964 99 NI BB NOT_NAMED 1964-10-18 00:00:00 TS 17.6880 86.0769 main 200 163 O________OP___ jtwc_io IO121964 17.7000 86.1000 -1 17.7000 86.1000 TC 25 17.6639 86.0307 1 7 330
1964291N16091 1964 99 NI BB NOT_NAMED 1964-10-18 03:00:00 TS 17.9900 85.8999 main 163 128 P________PO___ IO121964 17.9849 85.8998 -1 17.9849 85.8998 TC 25 18.0000 85.9000 1 7 330
1964291N16091 1964 99 NI BB NOT_NAMED 1964-10-18 06:00:00 TS 18.3145 85.6943 main 128 90 O________OP___ jtwc_io IO121964 18.3000 85.7000 -1 18.3000 85.7000 TC 25 18.3436 85.6829 1 8 330
1964291N16091 1964 99 NI BB NOT_NAMED 1964-10-18 09:00:00 TS 18.6999 85.4599 main 90 38 P________PP___ IO121964 18.7000 85.4576 -1 18.7000 85.4576 TC 25 18.6998 85.4647 1 9 329
1964291N16091 1964 99 NI BB NOT_NAMED 1964-10-18 12:00:00 TS 19.0854 85.2130 main 38 0 O________OP___ jtwc_io IO121964 19.1000 85.2000 -1 19.1000 85.2000 TC 25 19.0561 85.2391 1 9 327
1964291N16091 1964 99 NI BB NOT_NAMED 1964-10-18 15:00:00 TS 19.4100 84.9715 main 0 0 P________PO___ IO121964 19.4149 84.9573 -1 19.4149 84.9573 TC 25 19.4000 85.0000 1 8 323
1964291N16091 1964 99 NI BB NOT_NAMED 1964-10-18 18:00:00 TS 19.7116 84.7078 main 0 0 O________OP___ jtwc_io IO121964 19.7000 84.7000 -1 19.7000 84.7000 TC 25 19.7348 84.7233 1 8 319
1964291N16091 1964 99 NI BB NOT_NAMED 1964-10-18 21:00:00 TS 20.0226 84.4068 main 0 0 P________PP___ IO121964 20.0076 84.3925 -1 20.0076 84.3925 TC 25 20.0527 84.4353 1 8 317
1964291N16091 1964 99 NI BB NOT_NAMED 1964-10-19 00:00:00 TS 20.3147 84.1182 main 0 0 O________OP___ jtwc_io IO121964 20.3000 84.1000 -1 20.3000 84.1000 TC 25 20.3442 84.1546 1 7 319
1964291N16091 1964 99 NI BB NOT_NAMED 1964-10-19 03:00:00 TS 20.5766 83.8849 main 0 0 P________PO___ IO121964 20.5649 83.8774 -1 20.5649 83.8774 TC 25 20.6000 83.9000 1 6 321
1964291N16091 1964 99 NI BB NOT_NAMED 1964-10-19 06:00:00 TS 20.8063 83.6986 main 0 0 O________OP___ jtwc_io IO121964 20.8000 83.7000 -1 20.8000 83.7000 TC 25 20.8188 83.6957 1 5 324
1964291N16091 1964 99 NI BB NOT_NAMED 1964-10-19 09:00:00 TS 21.0157 83.5398 main 0 0 P________PP___ IO121964 21.0224 83.5499 -1 21.0224 83.5499 TC 25 21.0022 83.5194 1 5 323
1964291N16091 1964 99 NI BB NOT_NAMED 1964-10-19 12:00:00 TS 21.1865 83.3861 main 0 0 O________OP___ jtwc_io IO121964 21.2000 83.4000 -1 21.2000 83.4000 TC 25 21.1595 83.3584 1 4 313
1964291N16091 1964 99 NI BB NOT_NAMED 1964-10-19 15:00:00 TS 21.3050 83.2000 main 0 0 P________PO___ IO121964 21.3075 83.1999 -1 21.3075 83.1999 TC 25 21.3000 83.2000 1 4 301
1964291N16091 1964 99 NI BB NOT_NAMED 1964-10-19 18:00:00 TS 21.4077 82.9868 main 0 0 O________OP___ jtwc_io IO121964 21.4000 83.0000 -1 21.4000 83.0000 TC 25 21.4232 82.9603 1 4 302
1964291N16091 1964 99 NI BB NOT_NAMED 1964-10-19 21:00:00 TS 21.5400 82.8002 main 0 0 P________PP___ IO121964 21.5425 82.8350 -1 21.5425 82.8350 TC 25 21.5351 82.7305 1 4 312
1964291N16091 1964 99 NI BB NOT_NAMED 1964-10-20 00:00:00 TS 21.6848 82.6535 main 0 0 O________OP___ jtwc_io IO121964 21.7000 82.7000 -1 21.7000 82.7000 TC 25 21.6543 82.5605 1 4 318
1964291N16091 1964 99 NI BB NOT_NAMED 1964-10-20 03:00:00 TS 21.8233 82.5218 main 0 0 P________PO___ IO121964 21.8349 82.5327 -1 21.8349 82.5327 TC 25 21.8000 82.5000 1 3 340
1964291N16091 1964 99 NI BB NOT_NAMED 1964-10-20 06:00:00 TS 22.0028 82.5351 main 0 0 O________OP___ jtwc_io IO121964 22.0000 82.5000 -1 22.0000 82.5000 TC 25 22.0085 82.6053 1 5 29
1964291N16091 1964 99 NI BB NOT_NAMED 1964-10-20 09:00:00 TS 22.2427 82.7720 main 0 0 P________PP___ IO121964 22.2427 82.7472 -1 22.2427 82.7472 TC 25 22.2427 82.8216 1 7 47
1964291N16091 1964 99 NI BB NOT_NAMED 1964-10-20 12:00:00 TS 22.4935 83.1007 main 0 0 O________OP___ jtwc_io IO121964 22.5000 83.1000 -1 22.5000 83.1000 TC 25 22.4805 83.1022 1 7 50
1964291N16091 1964 99 NI BB NOT_NAMED 1964-10-20 15:00:00 TS 22.7099 83.3717 main 0 0 P________PO___ IO121964 22.7149 83.3576 -1 22.7149 83.3576 TC 25 22.7000 83.4000 1 6 51
1964291N16091 1964 99 NI BB NOT_NAMED 1964-10-20 18:00:00 TS 22.8940 83.6306 main 0 0 O________OP___ jtwc_io IO121964 22.9000 83.6000 -1 22.9000 83.6000 TC 25 22.8849 83.6766 1 6 54
1964291N16091 1964 99 NI BB NOT_NAMED 1964-10-20 21:00:00 TS 23.0501 83.8829 main 0 0 P________PP___ IO121964 23.0576 83.8474 -1 23.0576 83.8474 TC 25 23.0400 83.9304 1 5 58
1964291N16091 1964 99 NI BB NOT_NAMED 1964-10-21 00:00:00 TS 23.1875 84.1344 main 0 0 O________OP___ jtwc_io IO121964 23.2000 84.1000 -1 23.2000 84.1000 TC 25 23.1751 84.1689 1 5 62
1964291N16091 1964 99 NI BB NOT_NAMED 1964-10-21 03:00:00 NR 23.3000 84.4000 main 0 __________O___ IO121964 -1 TC 23.3000 84.4000 1 5 65

IBTrACS Databaseについて

本データベースは、米国NOAAが公開する1842年以降の世界の熱帯低気圧のベストトラックデータアーカイブInternational Best Track Archive for Climate Stewardship (IBTrACS)を、ウェブで閲覧しやすい形式に変換したものです。

最終更新日:2021-12-03